sensor_id;sensor_type;location;lat;lon;timestamp;pressure;altitude;pressure_sealevel;temperature;humidity
929;BME280;451;47.988;7.842;2023-03-15T00:07:38;98336.41;;;4.75;100.00
929;BME280;451;47.988;7.842;2023-03-15T00:16:42;98345.16;;;4.35;100.00
929;BME280;451;47.988;7.842;2023-03-15T00:25:48;98345.41;;;4.32;100.00
929;BME280;451;47.988;7.842;2023-03-15T00:34:51;98391.91;;;4.16;100.00
929;BME280;451;47.988;7.842;2023-03-15T00:43:56;98396.31;;;4.25;100.00
929;BME280;451;47.988;7.842;2023-03-15T00:52:59;98379.53;;;3.99;100.00
929;BME280;451;47.988;7.842;2023-03-15T01:02:05;98361.50;;;3.77;100.00
929;BME280;451;47.988;7.842;2023-03-15T01:11:10;98435.97;;;4.08;100.00
929;BME280;451;47.988;7.842;2023-03-15T01:20:15;98449.69;;;3.69;100.00
929;BME280;451;47.988;7.842;2023-03-15T01:29:18;98471.59;;;3.66;100.00
929;BME280;451;47.988;7.842;2023-03-15T01:38:22;98464.53;;;3.78;100.00
929;BME280;451;47.988;7.842;2023-03-15T01:47:26;98474.69;;;3.81;100.00
929;BME280;451;47.988;7.842;2023-03-15T01:56:35;98476.59;;;3.37;100.00
929;BME280;451;47.988;7.842;2023-03-15T02:05:43;98493.34;;;3.01;100.00
929;BME280;451;47.988;7.842;2023-03-15T02:14:54;98483.13;;;2.77;100.00
929;BME280;451;47.988;7.842;2023-03-15T02:24:06;98495.38;;;2.75;100.00
929;BME280;451;47.988;7.842;2023-03-15T02:33:16;98477.25;;;2.64;100.00
929;BME280;451;47.988;7.842;2023-03-15T02:42:21;98475.50;;;2.54;100.00
929;BME280;451;47.988;7.842;2023-03-15T02:51:27;98497.53;;;2.26;100.00
929;BME280;451;47.988;7.842;2023-03-15T03:00:32;98511.00;;;2.31;100.00
929;BME280;451;47.988;7.842;2023-03-15T03:09:36;98514.41;;;2.20;100.00
929;BME280;451;47.988;7.842;2023-03-15T03:18:40;98525.38;;;2.24;100.00
929;BME280;451;47.988;7.842;2023-03-15T03:27:45;98512.69;;;1.75;100.00
929;BME280;451;47.988;7.842;2023-03-15T03:36:48;98526.06;;;2.15;100.00
929;BME280;451;47.988;7.842;2023-03-15T03:46:01;98530.69;;;1.76;100.00
929;BME280;451;47.988;7.842;2023-03-15T03:55:05;98483.47;;;1.38;100.00
929;BME280;451;47.988;7.842;2023-03-15T04:04:09;98556.41;;;1.79;100.00
929;BME280;451;47.988;7.842;2023-03-15T04:13:14;98568.34;;;1.69;100.00
929;BME280;451;47.988;7.842;2023-03-15T04:22:20;98578.41;;;1.74;100.00
929;BME280;451;47.988;7.842;2023-03-15T04:31:42;98439.19;;;0.34;100.00
929;BME280;451;47.988;7.842;2023-03-15T04:41:07;98573.13;;;1.28;100.00
929;BME280;451;47.988;7.842;2023-03-15T04:50:21;98597.09;;;1.18;100.00
929;BME280;451;47.988;7.842;2023-03-15T04:59:52;98634.75;;;1.23;100.00
929;BME280;451;47.988;7.842;2023-03-15T05:09:26;98584.72;;;0.98;100.00
929;BME280;451;47.988;7.842;2023-03-15T05:18:49;98604.53;;;1.23;100.00
929;BME280;451;47.988;7.842;2023-03-15T05:28:15;98614.69;;;1.13;100.00
929;BME280;451;47.988;7.842;2023-03-15T05:37:44;98614.06;;;1.23;100.00
929;BME280;451;47.988;7.842;2023-03-15T05:47:05;98616.47;;;1.00;100.00
929;BME280;451;47.988;7.842;2023-03-15T05:56:28;98643.25;;;1.25;100.00
929;BME280;451;47.988;7.842;2023-03-15T06:06:04;98638.53;;;1.42;100.00
929;BME280;451;47.988;7.842;2023-03-15T06:15:15;98663.66;;;1.53;100.00
929;BME280;451;47.988;7.842;2023-03-15T06:24:19;98675.31;;;1.71;100.00
929;BME280;451;47.988;7.842;2023-03-15T06:33:25;98679.84;;;2.04;100.00
929;BME280;451;47.988;7.842;2023-03-15T06:42:29;98594.53;;;1.77;100.00
929;BME280;451;47.988;7.842;2023-03-15T06:51:34;98677.47;;;2.36;100.00
929;BME280;451;47.988;7.842;2023-03-15T07:00:44;98629.13;;;2.24;100.00
929;BME280;451;47.988;7.842;2023-03-15T07:09:50;98709.19;;;2.86;100.00
929;BME280;451;47.988;7.842;2023-03-15T07:18:56;98709.94;;;3.10;100.00
929;BME280;451;47.988;7.842;2023-03-15T07:28:02;98715.78;;;3.56;100.00
929;BME280;451;47.988;7.842;2023-03-15T07:37:05;98713.13;;;3.90;100.00
929;BME280;451;47.988;7.842;2023-03-15T07:46:09;98721.59;;;4.67;100.00
929;BME280;451;47.988;7.842;2023-03-15T07:55:12;98721.84;;;4.64;98.92
929;BME280;451;47.988;7.842;2023-03-15T08:04:17;98727.34;;;5.12;97.22
929;BME280;451;47.988;7.842;2023-03-15T08:13:20;98723.91;;;5.42;93.42
929;BME280;451;47.988;7.842;2023-03-15T08:22:25;98710.09;;;6.00;87.12
929;BME280;451;47.988;7.842;2023-03-15T08:31:28;98712.72;;;6.58;82.91
929;BME280;451;47.988;7.842;2023-03-15T08:40:33;98708.81;;;6.91;77.38
929;BME280;451;47.988;7.842;2023-03-15T08:49:35;98707.06;;;7.19;78.70
929;BME280;451;47.988;7.842;2023-03-15T08:58:40;98715.72;;;6.73;74.94
929;BME280;451;47.988;7.842;2023-03-15T09:07:43;98730.34;;;7.22;70.59
929;BME280;451;47.988;7.842;2023-03-15T09:16:48;98740.72;;;7.04;67.88
929;BME280;451;47.988;7.842;2023-03-15T09:25:52;98733.09;;;7.57;66.04
929;BME280;451;47.988;7.842;2023-03-15T09:34:57;98748.66;;;7.86;61.36
929;BME280;451;47.988;7.842;2023-03-15T09:44:11;98745.97;;;7.41;59.59
929;BME280;451;47.988;7.842;2023-03-15T09:53:20;98761.97;;;7.65;60.25
929;BME280;451;47.988;7.842;2023-03-15T10:02:28;98755.38;;;8.16;58.40
929;BME280;451;47.988;7.842;2023-03-15T10:11:37;98756.09;;;8.26;57.63
929;BME280;451;47.988;7.842;2023-03-15T10:20:49;98756.03;;;8.89;55.60
929;BME280;451;47.988;7.842;2023-03-15T10:29:58;98714.25;;;8.62;54.77
929;BME280;451;47.988;7.842;2023-03-15T10:39:02;98769.19;;;9.15;57.31
929;BME280;451;47.988;7.842;2023-03-15T10:48:08;98734.59;;;8.32;54.49
929;BME280;451;47.988;7.842;2023-03-15T10:57:13;98715.41;;;8.85;55.24
929;BME280;451;47.988;7.842;2023-03-15T11:06:23;98679.03;;;9.50;56.00
929;BME280;451;47.988;7.842;2023-03-15T11:15:27;98736.28;;;9.20;55.12
929;BME280;451;47.988;7.842;2023-03-15T11:24:32;98743.16;;;9.47;53.13
929;BME280;451;47.988;7.842;2023-03-15T11:33:40;98714.31;;;9.97;52.32
929;BME280;451;47.988;7.842;2023-03-15T11:42:48;98671.00;;;9.51;52.13
929;BME280;451;47.988;7.842;2023-03-15T11:51:54;98661.72;;;9.81;49.74
929;BME280;451;47.988;7.842;2023-03-15T12:01:04;98696.88;;;9.80;49.67
929;BME280;451;47.988;7.842;2023-03-15T12:10:19;98705.88;;;10.76;48.95
929;BME280;451;47.988;7.842;2023-03-15T12:19:33;98694.03;;;10.88;47.74
929;BME280;451;47.988;7.842;2023-03-15T12:28:38;98708.50;;;10.68;46.95
929;BME280;451;47.988;7.842;2023-03-15T12:37:46;98695.75;;;11.76;46.27
929;BME280;451;47.988;7.842;2023-03-15T12:46:55;98681.25;;;12.33;44.74
929;BME280;451;47.988;7.842;2023-03-15T12:56:28;98684.25;;;12.30;46.12
929;BME280;451;47.988;7.842;2023-03-15T13:05:39;98672.81;;;12.98;45.42
929;BME280;451;47.988;7.842;2023-03-15T13:14:54;98664.97;;;12.90;44.39
929;BME280;451;47.988;7.842;2023-03-15T13:24:01;98612.81;;;11.71;45.51
929;BME280;451;47.988;7.842;2023-03-15T13:33:15;98620.00;;;11.86;46.65
929;BME280;451;47.988;7.842;2023-03-15T13:42:24;98537.56;;;11.77;47.77
929;BME280;451;47.988;7.842;2023-03-15T13:51:31;98641.44;;;12.28;47.33
929;BME280;451;47.988;7.842;2023-03-15T14:00:35;98578.78;;;11.93;46.59
929;BME280;451;47.988;7.842;2023-03-15T14:09:40;98604.41;;;12.22;46.20
929;BME280;451;47.988;7.842;2023-03-15T14:18:43;98621.63;;;12.32;45.16
929;BME280;451;47.988;7.842;2023-03-15T14:27:48;98599.34;;;11.66;46.62
929;BME280;451;47.988;7.842;2023-03-15T14:36:52;98603.22;;;11.87;45.96
929;BME280;451;47.988;7.842;2023-03-15T14:45:59;98590.19;;;12.45;45.40
929;BME280;451;47.988;7.842;2023-03-15T14:55:03;98603.66;;;12.50;42.91
929;BME280;451;47.988;7.842;2023-03-15T15:04:09;98623.19;;;12.93;43.11
929;BME280;451;47.988;7.842;2023-03-15T15:13:16;98639.53;;;12.60;43.95
929;BME280;451;47.988;7.842;2023-03-15T15:22:21;98541.59;;;11.88;40.03
929;BME280;451;47.988;7.842;2023-03-15T15:31:27;98599.38;;;12.12;38.99
929;BME280;451;47.988;7.842;2023-03-15T15:40:32;98617.66;;;11.91;41.22
929;BME280;451;47.988;7.842;2023-03-15T15:49:35;98647.88;;;12.03;41.63
929;BME280;451;47.988;7.842;2023-03-15T15:58:40;98660.06;;;12.27;41.17
929;BME280;451;47.988;7.842;2023-03-15T16:07:44;98672.25;;;12.05;41.63
929;BME280;451;47.988;7.842;2023-03-15T16:16:49;98668.28;;;11.78;41.95
929;BME280;451;47.988;7.842;2023-03-15T16:25:53;98677.72;;;12.18;42.42
929;BME280;451;47.988;7.842;2023-03-15T16:35:00;98699.22;;;11.21;45.02
929;BME280;451;47.988;7.842;2023-03-15T16:44:09;98589.16;;;9.56;47.36
929;BME280;451;47.988;7.842;2023-03-15T16:53:14;98679.13;;;9.06;53.16
929;BME280;451;47.988;7.842;2023-03-15T17:02:19;98720.13;;;9.75;56.45
929;BME280;451;47.988;7.842;2023-03-15T17:11:26;98746.44;;;8.98;56.10
929;BME280;451;47.988;7.842;2023-03-15T17:20:30;98702.28;;;8.41;60.03
929;BME280;451;47.988;7.842;2023-03-15T17:29:36;98620.91;;;7.72;60.53
929;BME280;451;47.988;7.842;2023-03-15T17:38:39;98736.56;;;8.03;62.40
929;BME280;451;47.988;7.842;2023-03-15T17:47:44;98751.09;;;8.42;62.09
929;BME280;451;47.988;7.842;2023-03-15T17:56:48;98764.91;;;8.35;60.87
929;BME280;451;47.988;7.842;2023-03-15T18:05:53;98754.47;;;8.25;61.37
929;BME280;451;47.988;7.842;2023-03-15T18:15:00;98780.56;;;8.62;61.84
929;BME280;451;47.988;7.842;2023-03-15T18:24:05;98790.84;;;8.28;61.73
929;BME280;451;47.988;7.842;2023-03-15T18:33:09;98784.97;;;8.44;62.32
929;BME280;451;47.988;7.842;2023-03-15T18:42:13;98750.25;;;8.42;61.71
929;BME280;451;47.988;7.842;2023-03-15T18:51:16;98739.69;;;8.52;63.41
929;BME280;451;47.988;7.842;2023-03-15T19:00:24;98689.59;;;8.19;64.48
929;BME280;451;47.988;7.842;2023-03-15T19:09:28;98773.22;;;8.48;64.64
929;BME280;451;47.988;7.842;2023-03-15T19:18:32;98811.56;;;8.67;63.33
929;BME280;451;47.988;7.842;2023-03-15T19:27:35;98700.28;;;7.36;65.83
929;BME280;451;47.988;7.842;2023-03-15T19:36:40;98804.59;;;7.48;69.91
929;BME280;451;47.988;7.842;2023-03-15T19:45:43;98799.75;;;7.44;70.33
929;BME280;451;47.988;7.842;2023-03-15T19:54:48;98780.44;;;7.17;71.35
929;BME280;451;47.988;7.842;2023-03-15T20:03:52;98790.88;;;7.27;73.10
929;BME280;451;47.988;7.842;2023-03-15T20:12:57;98825.16;;;7.24;74.31
929;BME280;451;47.988;7.842;2023-03-15T20:22:00;98830.81;;;7.10;75.02
929;BME280;451;47.988;7.842;2023-03-15T20:31:09;98833.03;;;6.85;76.64
929;BME280;451;47.988;7.842;2023-03-15T20:40:14;98766.56;;;6.11;78.43
929;BME280;451;47.988;7.842;2023-03-15T20:49:19;98810.56;;;6.44;78.88
929;BME280;451;47.988;7.842;2023-03-15T20:58:22;98816.63;;;6.45;79.88
929;BME280;451;47.988;7.842;2023-03-15T21:07:30;98785.22;;;5.97;83.05
929;BME280;451;47.988;7.842;2023-03-15T21:16:33;98799.38;;;5.74;85.67
929;BME280;451;47.988;7.842;2023-03-15T21:25:38;98724.16;;;5.08;86.34
929;BME280;451;47.988;7.842;2023-03-15T21:34:42;98807.44;;;5.61;86.99
929;BME280;451;47.988;7.842;2023-03-15T21:43:47;98800.91;;;5.46;88.34
929;BME280;451;47.988;7.842;2023-03-15T21:52:50;98782.59;;;5.06;89.29
929;BME280;451;47.988;7.842;2023-03-15T22:01:56;98816.38;;;5.17;88.73
929;BME280;451;47.988;7.842;2023-03-15T22:10:59;98681.13;;;4.21;90.76
929;BME280;451;47.988;7.842;2023-03-15T22:20:06;98730.53;;;4.21;92.40
929;BME280;451;47.988;7.842;2023-03-15T22:29:13;98818.00;;;4.76;93.25
929;BME280;451;47.988;7.842;2023-03-15T22:38:17;98795.44;;;4.66;93.86
929;BME280;451;47.988;7.842;2023-03-15T22:47:21;98803.31;;;4.43;94.61
929;BME280;451;47.988;7.842;2023-03-15T22:56:25;98794.94;;;4.40;94.98
929;BME280;451;47.988;7.842;2023-03-15T23:05:28;98799.09;;;4.42;93.54
929;BME280;451;47.988;7.842;2023-03-15T23:14:33;98797.59;;;4.61;91.25
929;BME280;451;47.988;7.842;2023-03-15T23:23:37;98808.06;;;4.38;91.63
929;BME280;451;47.988;7.842;2023-03-15T23:32:42;98793.78;;;4.33;91.68
929;BME280;451;47.988;7.842;2023-03-15T23:41:45;98793.25;;;4.07;93.45
929;BME280;451;47.988;7.842;2023-03-15T23:50:54;98801.75;;;4.09;94.23
929;BME280;451;47.988;7.842;2023-03-15T23:59:58;98815.97;;;4.05;94.26
